Hlavní strana
METAR-TAF:

METAR-TAF

Letiště :

Caracas, Venezuela

zeměpisná šířka: 10-36N, zeměpisná délka: 066-59W, výška: 43 m

Aktuální stav počasí

Zpráva byla vytvořena před 22 minutami, v 13:02 UTC
Západní vítr 12 kt
Teplota
Tlak 1012 hPa

METAR: SVMI 261302Z AUTO 28012KT NCD ///// Q1012

Čas: 09:24 (13:24 UTC)

Předpověď počasí

Zpráva byla vytvořena před 3 hodinami a 24 minutami, v 10:00 UTC
Předpověď platná od 26 v 12 UTC do 27 v 12 UTC
Východní vítr 9 kt
Viditelnost 10 km a více
Polojasno ve výšce 1600 ft
Změna
od 26 v 12 UTC do 26 v 16 UTC
Východní vítr 6 kt
Viditelnost: 9000 m
Polojasno ve výšce 1600 ft
Oblačno až skoro zataženo ve výšce 1600 ft
slabé mrholení

TAF: SVMI 261000Z 2612/2712 08009KT 9999 SCT016 TX32/18Z TN25/09Z BECMG 2612/2616 08006KT 9000 -DZ SCT016 BKN016

Stav a předpovědi počasí z více než 4 000 letišť (zprávy METAR a TAF).

Červené a žluté tečky na mapě představují dostupné meteorologické stanice.

Když kurzor umístíte na tečku, zobrazí se název stanice.

Pak kliknutím zobrazíte stav a předpověď počasí.

Chcete-li změnit mapu, kliknutím na zelené tlačítko se znaménkem +mapu přiblížíte, kliknutím na zelené tlačítko se znaménkem – mapu oddálíte a kliknutím na zelené šipky přejdete na sousední mapy.


METAR-TAF: